createdAt,value
2018-12-24T00:00:53.131Z,101474.98
2018-12-24T00:03:22.420Z,101476.77
2018-12-24T00:05:51.681Z,101472.36
2018-12-24T00:08:21.045Z,101476.75
2018-12-24T00:10:50.327Z,101468.42
2018-12-24T00:13:19.615Z,101467.53
2018-12-24T00:15:48.938Z,101474.10
2018-12-24T00:18:18.264Z,101481.11
2018-12-24T00:20:47.491Z,101474.98
2018-12-24T00:23:16.756Z,101470.16
2018-12-24T00:25:46.049Z,101483.27
2018-12-24T00:28:15.333Z,101483.72
2018-12-24T00:30:44.600Z,101493.78
2018-12-24T00:33:13.851Z,101494.22
2018-12-24T00:35:43.097Z,101494.69
2018-12-24T00:38:12.468Z,101496.45
2018-12-24T00:40:41.735Z,101498.21
2018-12-24T00:43:11.006Z,101504.32
2018-12-24T00:45:40.238Z,101506.98
2018-12-24T00:48:09.730Z,101517.46
2018-12-24T00:50:38.738Z,101529.25
2018-12-24T00:53:08.005Z,101531.86
2018-12-24T00:55:37.452Z,101531.45
2018-12-24T00:58:06.705Z,101542.39
2018-12-24T01:00:36.083Z,101540.63
2018-12-24T01:03:05.331Z,101547.18
2018-12-24T01:05:34.600Z,101559.87
2018-12-24T01:08:03.949Z,101551.52
2018-12-24T01:10:33.263Z,101557.23
2018-12-24T01:13:02.649Z,101556.30
2018-12-24T01:15:31.973Z,101569.03
2018-12-24T01:18:01.514Z,101572.92
2018-12-24T01:20:30.799Z,101579.49
2018-12-24T01:23:00.337Z,101578.63
2018-12-24T01:25:29.860Z,101577.33
2018-12-24T01:27:59.343Z,101587.82
2018-12-24T01:30:28.699Z,101591.34
2018-12-24T01:32:57.929Z,101599.62
2018-12-24T01:35:27.221Z,101599.64
2018-12-24T01:37:56.457Z,101614.95
2018-12-24T01:40:25.727Z,101619.30
2018-12-24T01:42:55.099Z,101620.64
2018-12-24T01:45:24.393Z,101627.66
2018-12-24T01:47:53.805Z,101628.50
2018-12-24T01:50:23.126Z,101634.64
2018-12-24T01:52:52.344Z,101649.11
2018-12-24T01:55:21.651Z,101657.88
2018-12-24T01:57:50.917Z,101657.02
2018-12-24T02:00:20.148Z,101668.39
2018-12-24T02:02:49.537Z,101676.27
2018-12-24T02:05:18.801Z,101671.88
2018-12-24T02:07:48.123Z,101686.32
2018-12-24T02:10:17.397Z,101694.64
2018-12-24T02:12:46.650Z,101703.40
2018-12-24T02:15:16.113Z,101705.17
2018-12-24T02:17:45.416Z,101712.63
2018-12-24T02:20:14.715Z,101711.73
2018-12-24T02:22:43.961Z,101708.67
2018-12-24T02:25:13.325Z,101716.13
2018-12-24T02:27:42.615Z,101716.14
2018-12-24T02:30:11.851Z,101716.13
2018-12-24T02:32:41.106Z,101728.83
2018-12-24T02:35:10.375Z,101734.08
2018-12-24T02:37:39.597Z,101734.09
2018-12-24T02:40:08.922Z,101743.30
2018-12-24T02:42:38.208Z,101748.12
2018-12-24T02:45:07.521Z,101750.31
2018-12-24T02:47:36.761Z,101752.08
2018-12-24T02:50:06.029Z,101753.82
2018-12-24T02:52:35.296Z,101761.27
2018-12-24T02:55:04.554Z,101765.61
2018-12-24T02:57:33.790Z,101769.57
2018-12-24T03:00:03.021Z,101771.78
2018-12-24T03:02:32.266Z,101783.14
2018-12-24T03:05:01.508Z,101781.40
2018-12-24T03:07:30.824Z,101781.84
2018-12-24T03:10:00.269Z,101787.08
2018-12-24T03:12:29.413Z,101795.84
2018-12-24T03:14:58.825Z,101807.67
2018-12-24T03:17:28.226Z,101805.47
2018-12-24T03:19:57.713Z,101807.69
2018-12-24T03:22:27.122Z,101813.37
2018-12-24T03:24:56.468Z,101812.95
2018-12-24T03:27:25.653Z,101821.69
2018-12-24T03:29:54.943Z,101828.27
2018-12-24T03:32:24.219Z,101830.45
2018-12-24T03:34:53.535Z,101841.38
2018-12-24T03:37:22.797Z,101850.14
2018-12-24T03:39:52.035Z,101852.34
2018-12-24T03:42:21.355Z,101858.47
2018-12-24T03:44:50.643Z,101865.89
2018-12-24T03:47:19.947Z,101870.72
2018-12-24T03:49:49.233Z,101872.03
2018-12-24T03:52:18.503Z,101880.75
2018-12-24T03:54:47.837Z,101878.55
2018-12-24T03:57:17.120Z,101878.98
2018-12-24T03:59:46.433Z,101891.25
2018-12-24T04:02:15.730Z,101893.44
2018-12-24T04:04:45.073Z,101907.00
2018-12-24T04:07:14.285Z,101910.96
2018-12-24T04:09:43.556Z,101918.39
2018-12-24T04:12:12.788Z,101919.67
2018-12-24T04:14:42.059Z,101929.73
2018-12-24T04:17:11.332Z,101931.05
2018-12-24T04:19:40.669Z,101927.12
2018-12-24T04:22:09.939Z,101932.34
2018-12-24T04:24:39.197Z,101946.80
2018-12-24T04:27:08.433Z,101950.73
2018-12-24T04:29:37.765Z,101952.48
2018-12-24T04:32:06.992Z,101966.94
2018-12-24T04:34:36.235Z,101976.98
2018-12-24T04:37:05.564Z,101987.91
2018-12-24T04:39:34.745Z,101997.09
2018-12-24T04:42:03.981Z,102004.54
2018-12-24T04:44:33.203Z,102010.66
2018-12-24T04:47:02.449Z,102020.26
2018-12-24T04:49:31.743Z,102021.13
2018-12-24T04:52:01.059Z,102029.45
2018-12-24T04:54:30.341Z,102042.97
2018-12-24T04:56:59.601Z,102049.12
2018-12-24T04:59:28.850Z,102060.44
2018-12-24T05:01:58.130Z,102072.23
2018-12-24T05:04:27.452Z,102075.68
2018-12-24T05:06:56.727Z,102080.47
2018-12-24T05:09:26.061Z,102089.64
2018-12-24T05:11:55.303Z,102097.08
2018-12-24T05:14:24.599Z,102099.26
2018-12-24T05:16:53.944Z,102107.09
2018-12-24T05:19:23.196Z,102103.16
2018-12-24T05:21:52.453Z,102122.42
2018-12-24T05:24:21.731Z,102132.92
2018-12-24T05:26:51.046Z,102142.11
2018-12-24T05:29:20.311Z,102154.34
2018-12-24T05:31:49.659Z,102170.98
2018-12-24T05:34:18.905Z,102174.92
2018-12-24T05:36:48.187Z,102181.45
2018-12-24T05:39:17.431Z,102185.37
2018-12-24T05:41:46.710Z,102188.41
2018-12-24T05:44:16.060Z,102201.52
2018-12-24T05:46:45.294Z,102201.06
2018-12-24T05:49:14.520Z,102210.70
2018-12-24T05:51:43.990Z,102219.86
2018-12-24T05:54:13.225Z,102225.98
2018-12-24T05:56:42.585Z,102250.52
2018-12-24T05:59:11.861Z,102246.55
2018-12-24T06:01:41.163Z,102257.92
2018-12-24T06:04:10.438Z,102264.97
2018-12-24T06:06:39.692Z,102268.85
2018-12-24T06:09:08.990Z,102283.22
2018-12-24T06:11:38.225Z,102291.97
2018-12-24T06:14:07.524Z,102302.41
2018-12-24T06:16:36.781Z,102315.92
2018-12-24T06:19:06.019Z,102326.82
2018-12-24T06:21:35.268Z,102332.47
2018-12-24T06:24:04.565Z,102345.95
2018-12-24T06:26:33.901Z,102342.42
2018-12-24T06:29:03.140Z,102354.19
2018-12-24T06:31:32.483Z,102358.13
2018-12-24T06:34:01.726Z,102366.90
2018-12-24T06:36:31.088Z,102372.58
2018-12-24T06:39:00.360Z,102383.95
2018-12-24T06:41:29.652Z,102390.06
2018-12-24T06:44:06.544Z,102396.95
2018-12-24T06:46:28.216Z,102404.41
2018-12-24T06:48:57.470Z,102402.55
2018-12-24T06:51:26.758Z,102420.91
2018-12-24T06:53:56.106Z,102425.64
2018-12-24T06:56:25.352Z,102429.02
2018-12-24T06:58:54.606Z,102436.87
2018-12-24T07:01:23.864Z,102438.55
2018-12-24T07:03:53.120Z,102437.20
2018-12-24T07:06:22.368Z,102440.17
2018-12-24T07:08:51.628Z,102463.70
2018-12-24T07:11:20.846Z,102463.53
2018-12-24T07:13:50.189Z,102468.72
2018-12-24T07:16:19.511Z,102469.47
2018-12-24T07:18:48.748Z,102475.48
2018-12-24T07:21:18.008Z,102486.73
2018-12-24T07:23:47.286Z,102491.01
2018-12-24T07:26:16.520Z,102493.62
2018-12-24T07:28:45.934Z,102495.27
2018-12-24T07:31:15.176Z,102517.63
2018-12-24T07:33:45.364Z,102527.61
2018-12-24T07:36:14.596Z,102526.64
2018-12-24T07:38:43.844Z,102536.19
2018-12-24T07:41:13.064Z,102534.39
2018-12-24T07:43:42.425Z,102542.30
2018-12-24T07:46:11.684Z,102550.16
2018-12-24T07:48:40.970Z,102569.78
2018-12-24T07:51:10.310Z,102569.30
2018-12-24T07:53:39.565Z,102570.50
2018-12-24T07:56:08.902Z,102582.56
2018-12-24T07:58:39.486Z,102593.56
2018-12-24T08:01:07.524Z,102594.02
2018-12-24T08:03:37.059Z,102590.91
2018-12-24T08:06:06.355Z,102598.70
2018-12-24T08:08:35.638Z,102603.05
2018-12-24T08:11:04.904Z,102612.55
2018-12-24T08:13:34.175Z,102614.30
2018-12-24T08:16:03.484Z,102616.85
2018-12-24T08:18:32.762Z,102620.01
2018-12-24T08:21:02.026Z,102630.05
2018-12-24T08:23:31.291Z,102639.27
2018-12-24T08:26:00.627Z,102642.66
2018-12-24T08:28:29.898Z,102663.27
2018-12-24T08:30:59.136Z,102684.72
2018-12-24T08:33:28.441Z,102690.33
2018-12-24T08:35:57.687Z,102694.73
2018-12-24T08:38:26.978Z,102702.59
2018-12-24T08:40:56.338Z,102703.92
2018-12-24T08:43:25.635Z,102706.84
2018-12-24T08:45:54.881Z,102697.31
2018-12-24T08:48:24.124Z,102699.05
2018-12-24T08:50:53.538Z,102698.62
2018-12-24T08:53:22.836Z,102707.22
2018-12-24T08:55:52.302Z,102705.09
2018-12-24T08:58:21.641Z,102713.06
2018-12-24T09:00:50.916Z,102711.45
2018-12-24T09:03:20.164Z,102719.23
2018-12-24T09:05:49.464Z,102726.22
2018-12-24T09:08:18.736Z,102728.16
2018-12-24T09:10:48.016Z,102741.25
2018-12-24T09:13:17.255Z,102735.52
2018-12-24T09:15:46.578Z,102741.31
2018-12-24T09:18:15.936Z,102743.87
2018-12-24T09:20:52.617Z,102755.27
2018-12-24T09:23:14.618Z,102761.36
2018-12-24T09:25:43.858Z,102765.36
2018-12-24T09:28:13.123Z,102767.16
2018-12-24T09:30:48.501Z,102770.92
2018-12-24T09:33:17.944Z,102777.14
2018-12-24T09:35:47.174Z,102791.67
2018-12-24T09:38:16.425Z,102800.95
2018-12-24T09:40:45.688Z,102808.02
2018-12-24T09:43:14.984Z,102820.91
2018-12-24T09:45:44.208Z,102836.39
2018-12-24T09:48:13.469Z,102842.92
2018-12-24T09:50:42.719Z,102855.59
2018-12-24T09:53:11.967Z,102861.07
2018-12-24T09:55:41.229Z,102859.36
2018-12-24T09:58:10.489Z,102872.97
2018-12-24T10:00:39.737Z,102873.91
2018-12-24T10:03:17.413Z,102873.35
2018-12-24T10:05:46.685Z,102874.95
2018-12-24T10:08:19.173Z,102879.61
2018-12-24T10:10:48.490Z,102885.93
2018-12-24T10:13:17.782Z,102888.34
2018-12-24T10:15:47.032Z,102896.63
2018-12-24T10:18:16.300Z,102896.66
2018-12-24T10:20:45.575Z,102896.20
2018-12-24T10:23:14.826Z,102908.56
2018-12-24T10:25:44.329Z,102912.03
2018-12-24T10:28:13.571Z,102910.27
2018-12-24T10:30:42.858Z,102912.89
2018-12-24T10:33:12.150Z,102916.02
2018-12-24T10:35:41.411Z,102923.52
2018-12-24T10:38:10.715Z,102932.38
2018-12-24T10:41:02.047Z,102930.78
2018-12-24T10:43:31.389Z,102922.09
2018-12-24T10:46:00.706Z,102926.08
2018-12-24T10:48:29.970Z,102937.25
2018-12-24T10:50:59.286Z,102931.06
2018-12-24T10:53:28.623Z,102930.72
2018-12-24T10:55:57.882Z,102928.18
2018-12-24T10:58:27.255Z,102919.94
2018-12-24T11:00:57.049Z,102924.34
2018-12-24T11:03:26.391Z,102938.44
2018-12-24T11:05:55.672Z,102945.56
2018-12-24T11:08:25.045Z,102942.23
2018-12-24T11:10:54.470Z,102942.56
2018-12-24T11:13:23.827Z,102937.95
2018-12-24T11:15:53.156Z,102945.91
2018-12-24T11:18:22.454Z,102943.25
2018-12-24T11:20:51.863Z,102934.15
2018-12-24T11:23:21.138Z,102938.91
2018-12-24T11:25:50.536Z,102934.34
2018-12-24T11:28:19.880Z,102925.66
2018-12-24T11:30:49.236Z,102922.77
2018-12-24T11:33:18.490Z,102933.14
2018-12-24T11:35:47.814Z,102932.92
2018-12-24T11:38:17.169Z,102946.77
2018-12-24T11:40:46.641Z,102948.03
2018-12-24T11:43:15.975Z,102949.51
2018-12-24T11:45:45.212Z,102956.94
2018-12-24T11:48:14.692Z,102958.22
2018-12-24T11:50:43.943Z,102949.69
2018-12-24T11:53:13.455Z,102960.38
2018-12-24T11:55:42.975Z,102958.64
2018-12-24T11:58:13.239Z,102963.24
2018-12-24T12:00:41.941Z,102964.73
2018-12-24T12:03:12.733Z,102959.91
2018-12-24T12:05:40.511Z,102954.16
2018-12-24T12:08:09.934Z,102954.16
2018-12-24T12:10:39.305Z,102952.30
2018-12-24T12:13:08.600Z,102953.17
2018-12-24T12:15:42.614Z,102958.53
2018-12-24T12:18:07.295Z,102968.55
2018-12-24T12:20:36.692Z,103117.64
2018-12-24T12:23:05.973Z,102963.86
2018-12-24T12:25:35.243Z,102966.09
2018-12-24T12:28:04.641Z,102976.89
2018-12-24T12:30:33.924Z,102981.92
2018-12-24T12:33:03.384Z,102984.92
2018-12-24T12:35:32.661Z,102986.34
2018-12-24T12:38:02.083Z,102993.86
2018-12-24T12:40:31.446Z,103000.36
2018-12-24T12:43:00.709Z,102998.64
2018-12-24T12:45:30.029Z,102986.20
2018-12-24T12:47:59.316Z,102986.20
2018-12-24T12:50:28.838Z,102992.08
2018-12-24T12:52:58.307Z,103002.80
2018-12-24T12:55:27.638Z,103002.86
2018-12-24T12:57:57.181Z,103009.92
2018-12-24T13:00:26.518Z,103009.92
2018-12-24T13:02:55.984Z,103033.94
2018-12-24T13:05:25.375Z,103044.69
2018-12-24T13:07:54.799Z,103042.83
2018-12-24T13:10:24.177Z,103052.25
2018-12-24T13:12:53.467Z,103051.55
2018-12-24T13:15:22.807Z,103066.25
2018-12-24T13:17:52.183Z,103068.13
2018-12-24T13:20:25.141Z,103059.30
2018-12-24T13:22:50.811Z,103063.23
2018-12-24T13:25:20.141Z,103078.43
2018-12-24T13:27:49.510Z,103076.66
2018-12-24T13:30:18.890Z,103086.16
2018-12-24T13:32:48.288Z,103090.83
2018-12-24T13:35:17.585Z,103088.03
2018-12-24T13:37:46.903Z,103091.91
2018-12-24T13:40:16.248Z,103085.61
2018-12-24T13:42:45.703Z,103090.35
2018-12-24T13:45:14.964Z,103095.64
2018-12-24T13:47:44.422Z,103100.58
2018-12-24T13:50:13.673Z,103087.56
2018-12-24T13:52:43.016Z,103089.38
2018-12-24T13:55:12.397Z,103090.10
2018-12-24T13:57:41.707Z,103102.98
2018-12-24T14:00:10.958Z,103095.58
2018-12-24T14:02:40.217Z,103099.14
2018-12-24T14:05:09.510Z,103091.20
2018-12-24T14:07:38.862Z,103094.41
2018-12-24T14:10:08.314Z,103083.92
2018-12-24T14:12:37.933Z,103087.23
2018-12-24T14:15:07.614Z,103088.34
2018-12-24T14:17:37.012Z,103084.49
2018-12-24T14:20:06.961Z,103078.74
2018-12-24T14:22:36.217Z,103076.15
2018-12-24T14:25:05.631Z,103084.41
2018-12-24T14:27:34.961Z,103087.83
2018-12-24T14:30:04.869Z,103093.95
2018-12-24T14:32:34.138Z,103089.86
2018-12-24T14:35:03.447Z,103092.77
2018-12-24T14:37:32.787Z,103098.34
2018-12-24T14:40:02.165Z,103100.37
2018-12-24T14:42:32.159Z,103103.95
2018-12-24T14:45:01.474Z,103106.48
2018-12-24T14:47:31.227Z,103109.53
2018-12-24T14:50:00.492Z,103116.95
2018-12-24T14:52:29.761Z,103106.94
2018-12-24T14:54:59.108Z,103113.40
2018-12-24T14:57:28.398Z,103120.05
2018-12-24T14:59:57.723Z,103118.69
2018-12-24T15:02:27.142Z,103119.97
2018-12-24T15:04:56.544Z,103119.91
2018-12-24T15:07:25.800Z,103113.79
2018-12-24T15:09:55.123Z,103115.80
2018-12-24T15:12:24.519Z,103105.67
2018-12-24T15:14:53.768Z,103105.61
2018-12-24T15:17:23.045Z,103115.63
2018-12-24T15:19:52.399Z,103116.18
2018-12-24T15:22:21.632Z,103119.95
2018-12-24T15:24:50.899Z,103118.61
2018-12-24T15:27:20.178Z,103123.75
2018-12-24T15:29:49.493Z,103131.02
2018-12-24T15:32:18.805Z,103127.62
2018-12-24T15:34:48.276Z,103140.76
2018-12-24T15:37:17.531Z,103144.95
2018-12-24T15:39:46.875Z,103141.91
2018-12-24T15:42:16.077Z,103138.96
2018-12-24T15:44:45.433Z,103141.13
2018-12-24T15:47:14.688Z,103144.28
2018-12-24T15:49:43.999Z,103140.85
2018-12-24T15:52:13.238Z,103152.72
2018-12-24T15:54:42.545Z,103137.81
2018-12-24T15:57:11.840Z,103143.47
2018-12-24T15:59:41.106Z,103145.75
2018-12-24T16:02:10.372Z,103133.09
2018-12-24T16:04:39.728Z,103145.30
2018-12-24T16:07:09.052Z,103139.18
2018-12-24T16:09:38.269Z,103145.05
2018-12-24T16:12:07.663Z,103145.92
2018-12-24T16:14:36.921Z,103160.28
2018-12-24T16:17:06.179Z,103167.80
2018-12-24T16:19:35.567Z,103162.59
2018-12-24T16:22:04.921Z,103156.36
2018-12-24T16:24:34.183Z,103158.55
2018-12-24T16:27:03.419Z,103164.33
2018-12-24T16:29:32.675Z,103173.88
2018-12-24T16:32:02.025Z,103180.78
2018-12-24T16:34:31.449Z,103174.27
2018-12-24T16:37:00.689Z,103181.77
2018-12-24T16:39:30.039Z,103190.13
2018-12-24T16:41:59.318Z,103203.66
2018-12-24T16:44:28.642Z,103203.38
2018-12-24T16:46:59.540Z,103203.09
2018-12-24T16:49:27.238Z,103211.22
2018-12-24T16:51:56.568Z,103213.84
2018-12-24T16:54:25.837Z,103222.66
2018-12-24T16:56:55.086Z,103215.44
2018-12-24T16:59:24.350Z,103211.48
2018-12-24T17:01:53.634Z,103221.00
2018-12-24T17:04:22.921Z,103211.65
2018-12-24T17:06:52.390Z,103211.55
2018-12-24T17:09:21.934Z,103214.17
2018-12-24T17:11:51.390Z,103225.35
2018-12-24T17:14:20.842Z,103228.56
2018-12-24T17:16:50.278Z,103224.64
2018-12-24T17:19:19.778Z,103234.34
2018-12-24T17:21:49.248Z,103230.42
2018-12-24T17:24:18.599Z,103229.63
2018-12-24T17:26:47.839Z,103227.80
2018-12-24T17:29:17.188Z,103224.66
2018-12-24T17:31:46.504Z,103226.36
2018-12-24T17:34:15.744Z,103233.03
2018-12-24T17:36:45.104Z,103229.89
2018-12-24T17:39:14.399Z,103239.58
2018-12-24T17:41:43.706Z,103237.81
2018-12-24T17:44:12.983Z,103236.92
2018-12-24T17:46:42.284Z,103232.61
2018-12-24T17:49:11.542Z,103232.67
2018-12-24T17:51:40.906Z,103239.22
2018-12-24T17:54:10.137Z,103242.39
2018-12-24T17:56:39.384Z,103247.84
2018-12-24T17:59:08.681Z,103239.58
2018-12-24T18:01:37.987Z,103238.00
2018-12-24T18:04:09.086Z,103231.56
2018-12-24T18:06:36.475Z,103228.84
2018-12-24T18:09:08.107Z,103230.34
2018-12-24T18:11:37.405Z,103221.52
2018-12-24T18:14:06.757Z,103228.22
2018-12-24T18:16:36.049Z,103219.49
2018-12-24T18:19:05.286Z,103221.78
2018-12-24T18:21:34.591Z,103221.62
2018-12-24T18:24:03.961Z,103216.05
2018-12-24T18:26:33.240Z,103212.13
2018-12-24T18:29:02.507Z,103216.50
2018-12-24T18:31:31.743Z,103208.28
2018-12-24T18:34:00.974Z,103198.39
2018-12-24T18:36:30.255Z,103191.00
2018-12-24T18:38:59.474Z,103194.59
2018-12-24T18:41:28.715Z,103197.88
2018-12-24T18:43:57.960Z,103196.89
2018-12-24T18:46:27.199Z,103197.05
2018-12-24T18:48:56.574Z,103191.61
2018-12-24T18:51:25.840Z,103193.19
2018-12-24T18:53:55.141Z,103191.67
2018-12-24T18:56:24.431Z,103189.42
2018-12-24T18:58:53.720Z,103193.16
2018-12-24T19:01:22.961Z,103193.66
2018-12-24T19:03:53.010Z,103198.62
2018-12-24T19:06:22.276Z,103211.03
2018-12-24T19:08:51.575Z,103222.22
2018-12-24T19:11:20.908Z,103217.80
2018-12-24T19:13:50.183Z,103229.31
2018-12-24T19:16:19.498Z,103236.02
2018-12-24T19:18:48.757Z,103242.20
2018-12-24T19:21:18.072Z,103230.14
2018-12-24T19:23:47.344Z,103238.50
2018-12-24T19:26:16.710Z,103238.06
2018-12-24T19:28:45.956Z,103255.02
2018-12-24T19:31:15.234Z,103256.87
2018-12-24T19:33:44.503Z,103263.48
2018-12-24T19:36:13.761Z,103264.95
2018-12-24T19:38:43.051Z,103270.17
2018-12-24T19:41:12.385Z,103274.56
2018-12-24T19:43:41.655Z,103264.45
2018-12-24T19:46:10.933Z,103282.80
2018-12-24T19:48:40.179Z,103279.00
2018-12-24T19:51:09.426Z,103269.83
2018-12-24T19:53:38.695Z,103259.20
2018-12-24T19:56:07.944Z,103270.91
2018-12-24T19:58:37.243Z,103273.16
2018-12-24T20:01:06.484Z,103288.90
2018-12-24T20:03:35.739Z,103284.88
2018-12-24T20:06:05.139Z,103291.80
2018-12-24T20:08:34.397Z,103293.03
2018-12-24T20:11:03.673Z,103303.23
2018-12-24T20:13:32.926Z,103298.30
2018-12-24T20:16:02.173Z,103304.03
2018-12-24T20:18:31.427Z,103305.00
2018-12-24T20:21:00.681Z,103304.91
2018-12-24T20:23:30.017Z,103311.19
2018-12-24T20:25:59.293Z,103309.09
2018-12-24T20:28:28.586Z,103306.08
2018-12-24T20:30:57.847Z,103311.00
2018-12-24T20:33:27.142Z,103307.55
2018-12-24T20:35:56.407Z,103314.55
2018-12-24T20:38:25.712Z,103315.08
2018-12-24T20:40:55.007Z,103308.87
2018-12-24T20:43:24.269Z,103309.23
2018-12-24T20:45:53.609Z,103300.00
2018-12-24T20:48:22.895Z,103305.73
2018-12-24T20:50:52.182Z,103316.33
2018-12-24T20:53:21.608Z,103323.80
2018-12-24T20:55:50.859Z,103309.75
2018-12-24T20:58:20.133Z,103313.31
2018-12-24T21:00:49.435Z,103316.25
2018-12-24T21:03:18.717Z,103317.62
2018-12-24T21:05:48.038Z,103323.29
2018-12-24T21:08:17.275Z,103329.44
2018-12-24T21:10:46.549Z,103332.04
2018-12-24T21:13:15.825Z,103330.30
2018-12-24T21:15:45.111Z,103345.80
2018-12-24T21:18:15.150Z,103336.51
2018-12-24T21:20:43.721Z,103337.51
2018-12-24T21:23:13.045Z,103345.89
2018-12-24T21:25:42.281Z,103344.80
2018-12-24T21:28:11.647Z,103340.23
2018-12-24T21:30:40.935Z,103343.80
2018-12-24T21:33:10.347Z,103341.69
2018-12-24T21:35:39.599Z,103338.55
2018-12-24T21:38:08.873Z,103341.23
2018-12-24T21:40:38.222Z,103331.97
2018-12-24T21:43:07.466Z,103325.36
2018-12-24T21:45:36.766Z,103323.59
2018-12-24T21:48:06.013Z,103317.04
2018-12-24T21:50:35.274Z,103313.61
2018-12-24T21:53:04.638Z,103308.77
2018-12-24T21:55:33.987Z,103305.26
2018-12-24T21:58:03.533Z,103305.31
2018-12-24T22:00:32.800Z,103308.82
2018-12-24T22:03:02.057Z,103314.02
2018-12-24T22:05:31.294Z,103311.22
2018-12-24T22:08:00.663Z,103322.67
2018-12-24T22:10:29.938Z,103325.36
2018-12-24T22:12:59.183Z,103336.30
2018-12-24T22:15:28.407Z,103326.75
2018-12-24T22:17:57.673Z,103330.60
2018-12-24T22:20:27.165Z,103331.55
2018-12-24T22:22:56.436Z,103327.10
2018-12-24T22:25:25.693Z,103326.59
2018-12-24T22:27:54.957Z,103316.90
2018-12-24T22:30:24.241Z,103309.91
2018-12-24T22:32:53.505Z,103325.48
2018-12-24T22:35:22.763Z,103308.81
2018-12-24T22:37:52.049Z,103301.83
2018-12-24T22:40:21.321Z,103299.18
2018-12-24T22:42:50.637Z,103300.34
2018-12-24T22:45:19.923Z,103303.66
2018-12-24T22:47:49.182Z,103307.19
2018-12-24T22:50:18.452Z,103302.81
2018-12-24T22:52:47.740Z,103308.33
2018-12-24T22:55:17.029Z,103309.98
2018-12-24T22:57:44.958Z,103308.19
2018-12-24T23:00:15.717Z,103317.77
2018-12-24T23:02:45.060Z,103305.89
2018-12-24T23:05:14.369Z,103301.52
2018-12-24T23:07:43.714Z,103304.75
2018-12-24T23:10:13.072Z,103304.06
2018-12-24T23:12:42.325Z,103306.59
2018-12-24T23:15:11.588Z,103306.66
2018-12-24T23:17:40.877Z,103312.70
2018-12-24T23:20:10.163Z,103308.50
2018-12-24T23:22:39.409Z,103325.09
2018-12-24T23:25:08.662Z,103315.03
2018-12-24T23:27:37.925Z,103319.05
2018-12-24T23:30:07.888Z,103324.20
2018-12-24T23:32:37.127Z,103314.60
2018-12-24T23:35:06.500Z,103309.22
2018-12-24T23:37:35.796Z,103303.44
2018-12-24T23:40:05.509Z,103290.02
2018-12-24T23:42:34.861Z,103288.85
2018-12-24T23:45:04.566Z,103279.96
2018-12-24T23:47:36.771Z,103283.69
2018-12-24T23:50:06.193Z,103281.78
2018-12-24T23:52:35.502Z,103287.50
2018-12-24T23:55:04.724Z,103282.89
2018-12-24T23:57:33.992Z,103302.55
